createdAt,value
2022-10-09T00:01:06.351Z,7.50
2022-10-09T00:06:33.568Z,10.43
2022-10-09T00:11:55.469Z,13.88
2022-10-09T00:17:17.292Z,8.68
2022-10-09T00:22:39.435Z,8.20
2022-10-09T00:28:02.530Z,11.65
2022-10-09T00:33:24.514Z,8.50
2022-10-09T00:38:46.363Z,10.70
2022-10-09T00:44:47.017Z,7.47
2022-10-09T00:50:17.515Z,6.90
2022-10-09T00:55:40.138Z,7.03
2022-10-09T01:01:02.020Z,5.68
2022-10-09T01:06:48.152Z,7.13
2022-10-09T01:12:34.987Z,5.57
2022-10-09T01:18:12.333Z,7.82
2022-10-09T01:24:04.567Z,7.57
2022-10-09T01:29:31.915Z,9.50
2022-10-09T01:34:54.318Z,9.55
2022-10-09T01:40:18.124Z,5.50
2022-10-09T01:45:43.226Z,6.82
2022-10-09T01:51:05.742Z,8.02
2022-10-09T01:56:30.929Z,8.57
2022-10-09T02:01:54.100Z,9.32
2022-10-09T02:07:17.725Z,12.32
2022-10-09T02:12:45.761Z,6.57
2022-10-09T02:18:13.939Z,9.05
2022-10-09T02:23:39.139Z,8.23
2022-10-09T02:29:01.105Z,8.32
2022-10-09T02:34:23.057Z,5.07
2022-10-09T02:39:44.849Z,7.25
2022-10-09T02:45:07.535Z,7.53
2022-10-09T02:50:29.351Z,7.82
2022-10-09T02:55:51.186Z,9.38
2022-10-09T03:01:13.237Z,13.75
2022-10-09T03:06:35.033Z,8.27
2022-10-09T03:11:56.845Z,13.43
2022-10-09T03:17:18.759Z,7.55
2022-10-09T03:22:40.690Z,9.25
2022-10-09T03:28:02.957Z,10.00
2022-10-09T03:33:24.848Z,10.20
2022-10-09T03:38:46.732Z,10.10
2022-10-09T03:44:08.801Z,11.07
2022-10-09T03:49:30.772Z,8.25
2022-10-09T03:54:52.600Z,9.02
2022-10-09T04:00:15.263Z,11.60
2022-10-09T04:05:38.686Z,10.43
2022-10-09T04:11:01.157Z,8.02
2022-10-09T04:16:23.046Z,8.32
2022-10-09T04:21:44.950Z,10.45
2022-10-09T04:27:06.764Z,9.82
2022-10-09T04:32:28.594Z,9.23
2022-10-09T04:37:50.448Z,10.05
2022-10-09T04:43:12.333Z,10.07
2022-10-09T04:48:46.259Z,13.32
2022-10-09T04:54:09.255Z,9.98
2022-10-09T04:59:31.063Z,8.52
2022-10-09T05:04:52.934Z,12.10
2022-10-09T05:10:14.844Z,12.55
2022-10-09T05:15:37.418Z,13.15
2022-10-09T05:20:59.486Z,10.98
2022-10-09T05:26:23.482Z,15.02
2022-10-09T05:31:49.293Z,9.93
2022-10-09T05:37:11.591Z,12.00
2022-10-09T05:42:33.408Z,8.88
2022-10-09T05:47:55.278Z,9.60
2022-10-09T05:53:17.204Z,9.18
2022-10-09T05:58:39.030Z,12.52
2022-10-09T06:04:02.008Z,8.55
2022-10-09T06:09:25.290Z,9.00
2022-10-09T06:14:47.115Z,7.95
2022-10-09T06:20:10.178Z,10.98
2022-10-09T06:25:32.007Z,8.57
2022-10-09T06:30:53.923Z,9.48
2022-10-09T06:36:18.688Z,7.32
2022-10-09T06:41:40.913Z,12.43
2022-10-09T06:47:02.797Z,7.00
2022-10-09T06:52:24.631Z,8.43
2022-10-09T06:57:46.418Z,7.72
2022-10-09T07:03:08.307Z,5.47
2022-10-09T07:08:30.182Z,5.82
2022-10-09T07:13:56.052Z,6.35
2022-10-09T07:19:18.782Z,5.20
2022-10-09T07:24:40.678Z,4.07
2022-10-09T07:30:02.529Z,7.03
2022-10-09T07:35:26.953Z,7.05
2022-10-09T07:40:48.848Z,4.22
2022-10-09T07:46:16.188Z,6.18
2022-10-09T07:51:38.406Z,5.22
2022-10-09T07:57:01.334Z,6.18
2022-10-09T08:02:23.267Z,4.30
2022-10-09T08:07:45.220Z,16.63
2022-10-09T08:13:07.092Z,4.35
2022-10-09T08:18:28.904Z,8.88
2022-10-09T08:23:54.741Z,4.47
2022-10-09T08:29:16.546Z,6.47
2022-10-09T08:34:38.373Z,8.55
2022-10-09T08:40:00.227Z,6.95
2022-10-09T08:45:22.113Z,3.55
2022-10-09T08:50:49.970Z,4.57
2022-10-09T08:56:15.062Z,2.47
2022-10-09T09:01:43.376Z,5.30
2022-10-09T09:07:23.937Z,4.18
2022-10-09T09:12:55.197Z,4.28
2022-10-09T09:18:24.114Z,3.65
2022-10-09T09:23:47.364Z,5.53
2022-10-09T09:29:13.812Z,5.85
2022-10-09T09:34:41.347Z,5.47
2022-10-09T09:45:47.369Z,3.63
2022-10-09T09:51:28.795Z,5.28
2022-10-09T09:57:11.942Z,5.55
2022-10-09T10:02:35.029Z,5.40
2022-10-09T10:07:56.894Z,4.35
2022-10-09T10:13:21.872Z,4.60
2022-10-09T10:18:43.769Z,5.95
2022-10-09T10:24:11.955Z,5.22
2022-10-09T10:29:38.603Z,5.93
2022-10-09T10:40:30.218Z,5.68
2022-10-09T10:46:13.013Z,8.63
2022-10-09T10:51:58.073Z,5.72
2022-10-09T10:57:46.765Z,5.78
2022-10-09T11:03:17.852Z,9.35
2022-10-09T11:09:01.159Z,5.60
2022-10-09T11:14:47.728Z,4.50
2022-10-09T11:20:15.374Z,5.45
2022-10-09T11:25:59.162Z,5.75
2022-10-09T11:31:43.026Z,5.18
2022-10-09T11:37:14.626Z,4.32
2022-10-09T11:42:36.577Z,3.92
2022-10-09T11:48:12.662Z,6.00
2022-10-09T11:53:35.578Z,4.80
2022-10-09T11:59:06.330Z,4.55
2022-10-09T12:04:50.011Z,4.93
2022-10-09T12:10:32.138Z,4.65
2022-10-09T12:15:57.088Z,7.22
2022-10-09T12:21:25.248Z,6.00
2022-10-09T12:26:49.621Z,5.35
2022-10-09T12:32:17.618Z,6.65
2022-10-09T12:37:39.409Z,5.18
2022-10-09T12:43:07.861Z,4.78
2022-10-09T12:48:38.713Z,5.75
2022-10-09T12:54:08.546Z,6.13
2022-10-09T12:59:30.501Z,6.57
2022-10-09T13:04:59.122Z,6.97
2022-10-09T13:10:23.717Z,5.53
2022-10-09T13:15:45.755Z,4.00
2022-10-09T13:21:16.575Z,5.40
2022-10-09T13:26:40.555Z,5.45
2022-10-09T13:32:02.473Z,5.53
2022-10-09T13:37:26.469Z,4.90
2022-10-09T13:42:55.696Z,5.70
2022-10-09T13:48:17.527Z,4.43
2022-10-09T13:53:39.415Z,4.90
2022-10-09T13:59:01.208Z,4.43
2022-10-09T14:04:23.305Z,7.13
2022-10-09T14:09:45.126Z,4.72
2022-10-09T14:15:07.380Z,6.13
2022-10-09T14:20:29.207Z,7.93
2022-10-09T14:25:51.102Z,7.03
2022-10-09T14:31:13.146Z,7.35
2022-10-09T14:36:34.946Z,10.45
2022-10-09T14:41:56.767Z,6.80
2022-10-09T14:47:18.584Z,6.82
2022-10-09T14:52:40.425Z,7.07
2022-10-09T14:58:02.279Z,7.32
2022-10-09T15:03:25.558Z,6.63
2022-10-09T15:08:47.445Z,6.25
2022-10-09T15:14:09.371Z,5.50
2022-10-09T15:19:31.225Z,6.50
2022-10-09T15:24:53.072Z,7.65
2022-10-09T15:30:15.078Z,8.68
2022-10-09T15:35:36.931Z,10.35
2022-10-09T15:40:58.843Z,10.27
2022-10-09T15:46:21.151Z,8.18
2022-10-09T15:51:43.097Z,9.20
2022-10-09T15:57:04.982Z,8.85
2022-10-09T16:02:26.828Z,8.25
2022-10-09T16:07:48.895Z,8.25
2022-10-09T16:13:11.162Z,10.93
2022-10-09T16:18:33.642Z,7.35
2022-10-09T16:23:58.816Z,12.80
2022-10-09T16:29:21.241Z,9.18
2022-10-09T16:34:43.189Z,8.70
2022-10-09T16:40:05.866Z,11.18
2022-10-09T16:45:28.341Z,12.43
2022-10-09T16:50:50.198Z,7.43
2022-10-09T16:56:16.965Z,11.48
2022-10-09T17:07:01.107Z,9.93
2022-10-09T17:12:22.958Z,15.88
2022-10-09T17:17:44.776Z,11.15
2022-10-09T17:23:06.872Z,10.50
2022-10-09T17:28:28.808Z,11.57
2022-10-09T17:33:58.120Z,14.15
2022-10-09T17:39:19.968Z,16.77
2022-10-09T17:44:41.819Z,10.98
2022-10-09T17:50:03.967Z,12.00
2022-10-09T17:55:26.114Z,13.75
2022-10-09T18:00:48.078Z,16.25
2022-10-09T18:06:14.077Z,12.48
2022-10-09T18:11:36.088Z,14.40
2022-10-09T18:16:57.979Z,13.82
2022-10-09T18:22:19.793Z,14.75
2022-10-09T18:27:41.594Z,11.13
2022-10-09T18:33:03.491Z,13.40
2022-10-09T18:38:25.292Z,13.63
2022-10-09T18:43:48.042Z,12.02
2022-10-09T18:49:12.330Z,18.85
2022-10-09T18:54:34.314Z,23.02
2022-10-09T18:59:58.262Z,23.70
2022-10-09T19:05:20.057Z,20.33
2022-10-09T19:10:41.887Z,26.23
2022-10-09T19:16:03.762Z,35.50
2022-10-09T19:21:25.798Z,23.70
2022-10-09T19:26:47.606Z,27.20
2022-10-09T19:32:09.429Z,20.13
2022-10-09T19:37:31.244Z,24.85
2022-10-09T19:42:53.074Z,24.30
2022-10-09T19:48:15.759Z,22.02
2022-10-09T19:53:38.294Z,23.00
2022-10-09T19:59:02.835Z,22.80
2022-10-09T20:04:24.691Z,22.13
2022-10-09T20:09:46.515Z,23.08
2022-10-09T20:15:09.019Z,20.15
2022-10-09T20:20:30.831Z,23.02
2022-10-09T20:26:04.993Z,20.48
2022-10-09T20:31:27.912Z,21.05
2022-10-09T20:36:49.696Z,23.58
2022-10-09T20:42:11.571Z,20.90
2022-10-09T20:47:33.570Z,25.52
2022-10-09T20:52:55.369Z,21.75
2022-10-09T20:58:17.194Z,23.83
2022-10-09T21:03:39.254Z,29.00
2022-10-09T21:09:01.110Z,26.10
2022-10-09T21:14:22.942Z,27.42
2022-10-09T21:19:44.868Z,28.17
2022-10-09T21:25:07.024Z,27.92
2022-10-09T21:30:29.182Z,26.92
2022-10-09T21:35:52.191Z,29.95
2022-10-09T21:41:14.014Z,29.65
2022-10-09T21:46:36.705Z,30.65
2022-10-09T21:51:58.556Z,28.10
2022-10-09T21:57:20.519Z,28.60
2022-10-09T22:02:42.572Z,32.33
2022-10-09T22:08:04.411Z,35.85
2022-10-09T22:13:26.293Z,34.78
2022-10-09T22:18:48.117Z,35.00
2022-10-09T22:24:10.050Z,36.10
2022-10-09T22:29:31.901Z,32.33
2022-10-09T22:34:53.781Z,36.35
2022-10-09T22:40:15.789Z,37.00
2022-10-09T22:45:38.084Z,35.17
2022-10-09T22:51:01.872Z,34.63
2022-10-09T22:56:29.867Z,44.33
2022-10-09T23:01:54.521Z,37.88
2022-10-09T23:07:16.400Z,36.72
2022-10-09T23:12:38.244Z,39.92
2022-10-09T23:18:00.092Z,40.47
2022-10-09T23:23:22.517Z,39.97
2022-10-09T23:28:56.096Z,41.95
2022-10-09T23:34:17.955Z,41.20
2022-10-09T23:39:39.765Z,38.83
2022-10-09T23:45:01.772Z,36.17
2022-10-09T23:50:23.585Z,39.88
2022-10-09T23:55:45.793Z,38.60
